Time;durP1;ratioP1;P1;durP2;ratioP2;P2;SDS_P1;SDS_P2;PMS_P1;PMS_P2;Temp;Humidity;BMP_temperature;BMP_pressure;BME280_temperature;BME280_humidity;BME280_pressure;Samples;Min_cycle;Max_cycle;Signal;HPM_P1;HPM_P2
2022/04/29 00:01:30;;;;;;;11.77;3.07;;;10.30;73.60;;;;;;5052990;28;20029;-73
2022/04/29 00:03:56;;;;;;;8.60;3.73;;;10.30;73.70;;;;;;5055031;28;20017;-74
2022/04/29 00:06:21;;;;;;;8.67;3.93;;;10.30;73.30;;;;;;5053336;28;20051;-72
2022/04/29 00:08:47;;;;;;;10.70;3.60;;;10.20;73.90;;;;;;5052815;28;20052;-72
2022/04/29 00:11:13;;;;;;;10.63;3.63;;;10.20;74.50;;;;;;5073919;28;20024;-73
2022/04/29 00:13:38;;;;;;;10.30;3.60;;;10.10;74.70;;;;;;5074324;28;20032;-73
2022/04/29 00:16:05;;;;;;;9.50;3.37;;;10.10;74.60;;;;;;5054674;28;20507;-73
2022/04/29 00:18:31;;;;;;;9.77;3.77;;;10.00;74.70;;;;;;5073912;28;20480;-74
2022/04/29 00:20:58;;;;;;;8.20;4.10;;;10.00;74.70;;;;;;5073671;28;20025;-72
2022/04/29 00:23:23;;;;;;;12.73;4.40;;;9.90;75.00;;;;;;5066906;28;20047;-72
2022/04/29 00:25:49;;;;;;;8.07;4.23;;;9.90;75.00;;;;;;5036373;28;20108;-72
2022/04/29 00:28:15;;;;;;;10.50;3.97;;;9.90;75.50;;;;;;5052912;28;20025;-73
2022/04/29 00:30:40;;;;;;;11.67;4.63;;;9.90;75.80;;;;;;5053804;28;20036;-73
2022/04/29 00:33:06;;;;;;;8.37;4.20;;;9.80;75.30;;;;;;5053820;28;20029;-73
2022/04/29 00:35:32;;;;;;;8.70;4.00;;;9.80;76.10;;;;;;5053706;28;20029;-74
2022/04/29 00:37:58;;;;;;;13.53;5.13;;;9.80;75.90;;;;;;5053800;28;20033;-73
2022/04/29 00:40:27;;;;;;;9.90;4.77;;;9.70;75.80;;;;;;5053858;28;20506;-74
2022/04/29 00:42:53;;;;;;;8.50;4.50;;;9.70;75.90;;;;;;5052464;28;20021;-74
2022/04/29 00:45:21;;;;;;;10.77;5.27;;;9.70;76.00;;;;;;5052347;28;20021;-74
2022/04/29 00:47:48;;;;;;;14.10;5.13;;;9.60;76.60;;;;;;5052373;28;20029;-74
2022/04/29 00:50:16;;;;;;;9.47;4.60;;;9.60;76.50;;;;;;5053487;28;20029;-75
2022/04/29 00:52:45;;;;;;;17.07;6.03;;;9.60;76.50;;;;;;5053778;28;20112;-73
2022/04/29 00:55:12;;;;;;;9.47;4.13;;;9.50;77.10;;;;;;5053470;28;20040;-73
2022/04/29 00:58:16;;;;;;;12.07;5.20;;;9.50;76.60;;;;;;5052644;28;20033;-73
2022/04/29 01:00:42;;;;;;;10.27;5.40;;;9.50;77.50;;;;;;5041297;28;20041;-74
2022/04/29 01:03:11;;;;;;;11.87;5.70;;;9.50;77.30;;;;;;5052574;28;20025;-74
2022/04/29 01:05:39;;;;;;;11.50;5.57;;;9.40;77.90;;;;;;5052129;28;20087;-73
2022/04/29 01:08:05;;;;;;;11.00;5.10;;;9.40;78.70;;;;;;5053275;28;20025;-74
2022/04/29 01:10:31;;;;;;;12.50;5.47;;;9.40;79.20;;;;;;5035392;28;20021;-72
2022/04/29 01:13:01;;;;;;;12.17;5.57;;;9.30;78.70;;;;;;5051769;28;20120;-73
2022/04/29 01:15:28;;;;;;;13.53;6.43;;;9.30;79.10;;;;;;5052238;28;20104;-73
2022/04/29 01:17:56;;;;;;;13.53;5.90;;;9.30;79.40;;;;;;5043400;28;20438;-73
2022/04/29 01:20:26;;;;;;;12.90;6.23;;;9.30;79.30;;;;;;5035184;28;20029;-74
2022/04/29 01:22:51;;;;;;;12.57;6.43;;;9.20;79.60;;;;;;5055560;28;20036;-73
2022/04/29 01:25:17;;;;;;;12.93;7.23;;;9.20;80.60;;;;;;5093867;28;20032;-73
2022/04/29 01:27:44;;;;;;;14.37;6.50;;;9.20;80.60;;;;;;5075592;28;20032;-73
2022/04/29 01:30:12;;;;;;;17.10;6.97;;;9.10;80.50;;;;;;5075390;28;20490;-74
2022/04/29 01:32:39;;;;;;;16.63;7.50;;;9.10;81.10;;;;;;5075402;28;20031;-78
2022/04/29 01:35:07;;;;;;;11.93;6.77;;;9.20;82.00;;;;;;5075651;28;20030;-78
2022/04/29 01:37:33;;;;;;;16.20;7.07;;;9.10;81.30;;;;;;5093171;28;20043;-78
2022/04/29 01:39:59;;;;;;;12.60;6.30;;;9.00;81.10;;;;;;5075459;28;20028;-79
2022/04/29 01:42:25;;;;;;;14.43;8.00;;;9.00;81.30;;;;;;5073760;28;20024;-78
2022/04/29 01:44:51;;;;;;;14.13;7.13;;;9.00;81.80;;;;;;5069796;28;20086;-78
2022/04/29 01:47:17;;;;;;;16.73;7.17;;;9.00;81.70;;;;;;5072797;28;20029;-78
2022/04/29 01:49:43;;;;;;;15.23;7.80;;;8.90;81.60;;;;;;5071535;28;20899;-79
2022/04/29 01:52:09;;;;;;;14.20;7.73;;;9.00;82.00;;;;;;5073065;28;20029;-79
2022/04/29 01:54:36;;;;;;;19.03;8.27;;;8.90;81.90;;;;;;5071986;28;20078;-77
2022/04/29 01:57:01;;;;;;;19.67;8.47;;;8.90;82.00;;;;;;5073030;28;20031;-79
2022/04/29 01:59:29;;;;;;;19.63;7.53;;;8.90;82.40;;;;;;5071687;28;20036;-79
2022/04/29 02:01:57;;;;;;;14.83;7.50;;;8.90;82.30;;;;;;5054832;28;20464;-79
2022/04/29 02:04:24;;;;;;;17.13;7.93;;;8.80;82.10;;;;;;5072920;28;20078;-79
2022/04/29 02:06:49;;;;;;;14.80;8.00;;;8.80;82.60;;;;;;5072940;28;20028;-79
2022/04/29 02:09:15;;;;;;;14.90;7.57;;;8.80;82.80;;;;;;5054789;28;20101;-80
2022/04/29 02:12:03;;;;;;;13.20;7.20;;;8.80;83.00;;;;;;5071741;28;20033;-79
2022/04/29 02:14:27;;;;;;;16.93;8.17;;;8.80;83.00;;;;;;5072772;28;20071;-78
2022/04/29 02:16:53;;;;;;;15.03;8.57;;;8.80;83.30;;;;;;5072393;28;20116;-80
2022/04/29 02:19:18;;;;;;;17.30;8.20;;;8.80;83.30;;;;;;5074648;28;20492;-78
2022/04/29 02:21:44;;;;;;;16.43;8.40;;;8.70;83.40;;;;;;5075072;28;20110;-76
2022/04/29 02:24:10;;;;;;;22.17;8.83;;;8.70;83.50;;;;;;5076396;28;20091;-73
2022/04/29 02:26:36;;;;;;;18.00;8.40;;;8.70;84.20;;;;;;5078435;28;20090;-73
2022/04/29 02:29:01;;;;;;;16.23;8.67;;;8.70;84.30;;;;;;5061550;28;20031;-73
2022/04/29 02:31:27;;;;;;;13.37;7.70;;;8.70;84.40;;;;;;5078605;28;20093;-73
2022/04/29 02:33:52;;;;;;;17.43;8.50;;;8.70;84.30;;;;;;5078533;28;20077;-73
2022/04/29 02:36:18;;;;;;;15.13;7.73;;;8.70;84.30;;;;;;5078332;28;20055;-73
2022/04/29 02:38:44;;;;;;;16.40;7.90;;;8.60;84.40;;;;;;5078042;28;20028;-74
2022/04/29 02:41:09;;;;;;;17.23;8.83;;;8.60;84.20;;;;;;5096361;28;20023;-74
2022/04/29 02:43:36;;;;;;;14.77;7.77;;;8.60;84.20;;;;;;5061506;28;20380;-73
2022/04/29 02:46:02;;;;;;;13.53;7.53;;;8.60;84.70;;;;;;5078327;28;20472;-74
2022/04/29 02:48:28;;;;;;;12.53;6.27;;;8.60;84.40;;;;;;5096253;28;20077;-73
2022/04/29 02:50:53;;;;;;;18.93;8.17;;;8.60;84.50;;;;;;5061823;28;20488;-73
2022/04/29 02:53:19;;;;;;;16.93;7.53;;;8.60;84.70;;;;;;5078180;28;20032;-73
2022/04/29 02:55:45;;;;;;;15.10;7.30;;;8.60;84.60;;;;;;5078220;28;20020;-73
2022/04/29 02:58:11;;;;;;;19.13;8.17;;;8.60;84.60;;;;;;5096063;28;20024;-73
2022/04/29 03:00:38;;;;;;;12.90;7.20;;;8.60;84.60;;;;;;5096178;28;20356;-74
2022/04/29 03:03:04;;;;;;;15.57;7.87;;;8.60;84.90;;;;;;5077696;28;20507;-73
2022/04/29 03:05:29;;;;;;;15.23;8.00;;;8.60;84.90;;;;;;5095667;28;20028;-72
2022/04/29 03:07:55;;;;;;;15.70;7.70;;;8.70;85.00;;;;;;5061061;28;20095;-73
2022/04/29 03:10:21;;;;;;;17.67;8.83;;;8.60;85.10;;;;;;5060766;28;20110;-74
2022/04/29 03:12:46;;;;;;;15.57;7.70;;;8.60;84.90;;;;;;5077734;28;20028;-73
2022/04/29 03:15:18;;;;;;;15.43;7.67;;;8.70;84.90;;;;;;5077375;28;20036;-73
2022/04/29 03:20:36;;;;;;;16.37;7.33;;;8.60;85.40;;;;;;5095608;28;20038;-72
2022/04/29 03:23:02;;;;;;;17.87;8.23;;;8.60;85.50;;;;;;5095190;28;20052;-73
2022/04/29 03:25:28;;;;;;;18.03;9.17;;;8.60;85.70;;;;;;5077388;28;20028;-72
2022/04/29 03:27:54;;;;;;;17.27;9.07;;;8.50;86.00;;;;;;5077219;28;20024;-75
2022/04/29 03:30:19;;;;;;;15.83;8.93;;;8.50;86.00;;;;;;5095746;28;20056;-73
2022/04/29 03:32:53;;;;;;;19.77;8.97;;;8.50;86.40;;;;;;5060354;28;20035;-73
2022/04/29 03:35:19;;;;;;;18.08;8.93;;;8.60;86.20;;;;;;5094825;28;20492;-79
2022/04/29 03:37:45;;;;;;;16.77;7.97;;;8.50;86.40;;;;;;5095268;28;20024;-78
2022/04/29 03:40:11;;;;;;;19.03;8.83;;;8.40;86.70;;;;;;5077590;28;20126;-79
2022/04/29 03:42:37;;;;;;;18.67;8.60;;;8.40;86.80;;;;;;5077288;28;20028;-78
2022/04/29 03:45:03;;;;;;;19.53;8.90;;;8.40;86.90;;;;;;5060286;28;20020;-78
2022/04/29 03:47:28;;;;;;;19.57;8.57;;;8.40;87.30;;;;;;5076678;28;20039;-78
2022/04/29 03:49:54;;;;;;;13.80;8.07;;;8.40;87.80;;;;;;5076928;28;20105;-79
2022/04/29 03:52:19;;;;;;;18.27;8.90;;;8.40;87.60;;;;;;5076831;28;20388;-77
2022/04/29 03:54:45;;;;;;;16.97;8.40;;;8.40;87.60;;;;;;5060085;28;20035;-79
2022/04/29 03:57:11;;;;;;;15.80;7.43;;;8.40;87.10;;;;;;5094718;28;20032;-77
2022/04/29 03:59:36;;;;;;;20.40;8.17;;;8.30;87.70;;;;;;5093233;28;20115;-79
2022/04/29 04:02:02;;;;;;;20.37;8.43;;;8.30;88.10;;;;;;5094769;28;20028;-79
2022/04/29 04:04:28;;;;;;;19.40;8.30;;;8.30;88.20;;;;;;5094324;28;20013;-80
2022/04/29 04:07:00;;;;;;;17.00;7.80;;;8.40;88.10;;;;;;5059949;28;20388;-79
2022/04/29 04:09:26;;;;;;;17.77;7.70;;;8.30;88.00;;;;;;5077402;28;20024;-80
2022/04/29 04:11:52;;;;;;;18.27;7.50;;;8.30;87.80;;;;;;5094537;28;20526;-79
2022/04/29 04:14:18;;;;;;;13.80;7.73;;;8.30;88.00;;;;;;5094437;28;20081;-79
2022/04/29 04:16:44;;;;;;;15.87;8.50;;;8.40;88.80;;;;;;5094361;28;20032;-79
2022/04/29 04:19:10;;;;;;;19.03;7.60;;;8.40;88.50;;;;;;5076092;28;20031;-79
2022/04/29 04:21:35;;;;;;;18.87;8.30;;;8.30;88.50;;;;;;5094227;28;20025;-79
2022/04/29 04:24:01;;;;;;;15.50;7.37;;;8.40;88.30;;;;;;5076053;28;20043;-79
2022/04/29 04:26:27;;;;;;;16.80;8.17;;;8.40;88.90;;;;;;5094178;28;20081;-78
2022/04/29 04:28:53;;;;;;;21.03;8.67;;;8.40;88.60;;;;;;5059407;28;20032;-80
2022/04/29 04:31:21;;;;;;;12.40;7.23;;;8.40;88.70;;;;;;5076037;28;20142;-80
2022/04/29 04:33:47;;;;;;;14.17;6.47;;;8.40;88.40;;;;;;5059599;28;20507;-80
2022/04/29 04:36:13;;;;;;;14.43;6.83;;;8.40;88.30;;;;;;5076193;28;20028;-79
2022/04/29 04:38:38;;;;;;;13.90;8.00;;;8.40;88.50;;;;;;5059186;28;20539;-80
2022/04/29 04:41:04;;;;;;;18.27;6.63;;;8.40;88.80;;;;;;5093838;28;20039;-80
2022/04/29 04:43:30;;;;;;;19.70;8.13;;;8.40;88.70;;;;;;5075778;28;20043;-80
2022/04/29 04:45:56;;;;;;;16.83;7.57;;;8.50;88.80;;;;;;5075154;28;20115;-80
2022/04/29 04:48:22;;;;;;;16.07;7.10;;;8.50;88.60;;;;;;5075719;28;20024;-79
2022/04/29 04:50:48;;;;;;;14.47;7.50;;;8.50;88.40;;;;;;5093806;28;20056;-79
2022/04/29 04:53:14;;;;;;;15.27;7.03;;;8.50;88.40;;;;;;5093668;28;20438;-79
2022/04/29 04:55:40;;;;;;;15.10;7.77;;;8.50;88.80;;;;;;5075543;28;20024;-77
2022/04/29 04:58:06;;;;;;;15.50;7.80;;;8.50;88.60;;;;;;5093786;28;20441;-78
2022/04/29 05:00:32;;;;;;;16.07;7.10;;;8.60;89.10;;;;;;5075074;28;20027;-80
2022/04/29 05:02:57;;;;;;;15.13;7.70;;;8.50;88.80;;;;;;5093704;28;20111;-78
2022/04/29 05:05:23;;;;;;;14.30;7.23;;;8.50;89.00;;;;;;5075331;28;20110;-79
2022/04/29 05:07:49;;;;;;;21.50;7.33;;;8.60;88.80;;;;;;5058759;28;20453;-79
2022/04/29 05:10:15;;;;;;;15.63;6.43;;;8.50;88.90;;;;;;5093398;28;20020;-79
2022/04/29 05:12:42;;;;;;;17.63;6.53;;;8.50;88.80;;;;;;5086369;28;20032;-80
2022/04/29 05:15:08;;;;;;;15.83;7.20;;;8.60;88.80;;;;;;5074881;28;20468;-78
2022/04/29 05:17:34;;;;;;;14.73;7.00;;;8.50;88.40;;;;;;5092458;28;20027;-79
2022/04/29 05:20:00;;;;;;;15.97;7.07;;;8.60;88.70;;;;;;5058489;28;20024;-79
2022/04/29 05:22:29;;;;;;;12.70;7.30;;;8.60;88.90;;;;;;5075225;28;20028;-78
2022/04/29 05:24:55;;;;;;;14.97;6.83;;;8.60;88.80;;;;;;5075464;28;20048;-79
2022/04/29 05:27:21;;;;;;;14.03;6.70;;;8.60;88.60;;;;;;5075537;28;20034;-79
2022/04/29 05:29:47;;;;;;;17.43;7.00;;;8.60;88.50;;;;;;5075261;28;20111;-79
2022/04/29 05:32:12;;;;;;;18.47;7.20;;;8.70;88.50;;;;;;5058852;28;20081;-78
2022/04/29 05:34:38;;;;;;;17.73;8.57;;;8.70;88.70;;;;;;5093497;28;20473;-80
2022/04/29 05:37:04;;;;;;;17.03;6.83;;;8.70;88.60;;;;;;5060235;28;20032;-80
2022/04/29 05:42:18;;;;;;;14.27;7.05;;;8.70;88.50;;;;;;5073240;28;20075;-78
2022/04/29 05:44:44;;;;;;;16.47;7.23;;;8.80;88.40;;;;;;5071866;28;20075;-78
2022/04/29 05:47:10;;;;;;;20.03;7.80;;;8.80;88.30;;;;;;5073043;28;20021;-79
2022/04/29 05:49:36;;;;;;;16.90;6.20;;;8.80;88.20;;;;;;5055021;28;20044;-79
2022/04/29 05:52:04;;;;;;;15.97;7.30;;;8.90;88.00;;;;;;5071832;28;20119;-79
2022/04/29 05:54:31;;;;;;;17.00;7.87;;;8.80;88.00;;;;;;5072881;28;20033;-78
2022/04/29 05:56:57;;;;;;;13.53;7.73;;;8.90;88.10;;;;;;5072990;28;20147;-77
2022/04/29 05:59:23;;;;;;;15.20;7.53;;;8.80;88.30;;;;;;5076644;28;20473;-73
2022/04/29 06:01:48;;;;;;;17.50;7.37;;;8.90;88.60;;;;;;5075795;28;20035;-73
2022/04/29 06:04:14;;;;;;;16.17;7.30;;;8.90;88.30;;;;;;5076703;28;20032;-74
2022/04/29 06:06:40;;;;;;;15.33;7.67;;;8.90;88.40;;;;;;5058645;28;20035;-74
2022/04/29 06:09:06;;;;;;;14.27;6.60;;;8.90;88.60;;;;;;5076941;28;20033;-74
2022/04/29 06:11:31;;;;;;;15.30;7.70;;;9.00;88.70;;;;;;5075495;28;20033;-74
2022/04/29 06:13:57;;;;;;;14.50;7.30;;;8.90;88.60;;;;;;5071903;28;20039;-74
2022/04/29 06:16:22;;;;;;;15.10;7.30;;;9.00;88.50;;;;;;5078557;28;20145;-74
2022/04/29 06:18:48;;;;;;;16.77;7.43;;;8.90;88.40;;;;;;5058715;28;20033;-73
2022/04/29 06:21:16;;;;;;;17.43;6.87;;;8.90;88.60;;;;;;5096522;28;20027;-73
2022/04/29 06:23:42;;;;;;;18.10;7.70;;;9.10;88.80;;;;;;5078497;28;20125;-74
2022/04/29 06:26:08;;;;;;;14.40;7.83;;;9.10;88.50;;;;;;5075504;28;20024;-73
2022/04/29 06:28:34;;;;;;;19.97;7.93;;;9.10;88.50;;;;;;5077552;28;20020;-74
2022/04/29 06:31:00;;;;;;;13.87;7.77;;;9.10;88.70;;;;;;5095476;28;20046;-73
2022/04/29 06:33:29;;;;;;;13.20;7.03;;;9.10;88.60;;;;;;5095892;28;20468;-73
2022/04/29 06:35:55;;;;;;;18.20;7.20;;;9.00;88.40;;;;;;5077778;28;20020;-73
2022/04/29 06:38:21;;;;;;;16.63;7.27;;;9.20;88.70;;;;;;5077511;28;20458;-73
2022/04/29 06:40:46;;;;;;;12.70;7.50;;;9.20;88.70;;;;;;5059088;28;20124;-73
2022/04/29 06:43:12;;;;;;;17.80;7.60;;;9.20;88.60;;;;;;5078586;28;20028;-78
2022/04/29 06:45:38;;;;;;;15.00;6.90;;;9.30;88.70;;;;;;5059231;28;20318;-79
2022/04/29 06:48:04;;;;;;;15.47;6.47;;;9.40;88.50;;;;;;5077723;28;20361;-78
2022/04/29 06:50:29;;;;;;;13.97;7.40;;;9.50;88.70;;;;;;5077531;28;20032;-73
2022/04/29 06:52:55;;;;;;;13.97;6.80;;;9.50;88.40;;;;;;5093381;28;20084;-74
2022/04/29 06:55:20;;;;;;;14.47;6.50;;;9.60;88.40;;;;;;5093087;28;20028;-73
2022/04/29 06:57:49;;;;;;;16.97;7.00;;;9.60;88.30;;;;;;5056347;28;20488;-80
2022/04/29 07:00:15;;;;;;;17.80;7.90;;;9.70;88.20;;;;;;5074591;28;20400;-78
2022/04/29 07:02:41;;;;;;;14.27;6.97;;;9.70;88.10;;;;;;5075697;28;20028;-80
2022/04/29 07:05:08;;;;;;;17.17;7.27;;;9.80;87.90;;;;;;5058100;28;20445;-79
2022/04/29 07:07:34;;;;;;;12.13;7.03;;;9.90;87.90;;;;;;5074491;28;20052;-80
2022/04/29 07:09:59;;;;;;;17.27;7.00;;;9.90;87.70;;;;;;5074712;28;20469;-78
2022/04/29 07:12:25;;;;;;;12.87;6.57;;;10.00;87.40;;;;;;5074284;28;20039;-80
2022/04/29 07:14:52;;;;;;;14.70;6.70;;;10.00;87.30;;;;;;5057505;28;20033;-80
2022/04/29 07:17:20;;;;;;;10.87;6.30;;;10.00;87.10;;;;;;5057281;28;20123;-79
2022/04/29 07:19:46;;;;;;;16.77;7.13;;;10.00;87.00;;;;;;5075256;28;20060;-79
2022/04/29 07:22:12;;;;;;;19.60;6.80;;;10.00;86.90;;;;;;5083297;28;20028;-80
2022/04/29 07:24:37;;;;;;;12.03;5.63;;;10.10;86.80;;;;;;5077276;28;20098;-80
2022/04/29 07:27:05;;;;;;;14.67;6.53;;;10.20;86.70;;;;;;5077266;28;20066;-80
2022/04/29 07:29:31;;;;;;;15.03;6.20;;;10.20;86.60;;;;;;5095561;28;20545;-80
2022/04/29 07:31:56;;;;;;;12.57;6.07;;;10.30;86.60;;;;;;5095256;28;20024;-79
2022/04/29 07:41:44;;;;;;;17.97;6.73;;;10.40;86.40;;;;;;5095521;28;20063;-82
2022/04/29 07:42:36;;;;;;;14.17;5.73;;;10.60;85.20;;;;;;5095362;28;20556;-81
2022/04/29 07:45:02;;;;;;;15.17;5.83;;;10.60;84.70;;;;;;5077011;28;20032;-80
2022/04/29 07:47:27;;;;;;;14.20;5.63;;;10.70;84.60;;;;;;5076823;28;20115;-79
2022/04/29 07:49:53;;;;;;;12.70;5.80;;;10.70;84.50;;;;;;5094967;28;20054;-79
2022/04/29 07:52:19;;;;;;;13.27;5.67;;;10.80;84.40;;;;;;5094899;28;20028;-74
2022/04/29 07:54:44;;;;;;;15.50;5.43;;;10.90;84.40;;;;;;5094889;28;20039;-75
2022/04/29 07:57:10;;;;;;;12.87;5.17;;;11.00;84.30;;;;;;5059881;28;20029;-74
2022/04/29 07:59:35;;;;;;;12.17;5.37;;;11.10;84.40;;;;;;5094929;28;20034;-75
2022/04/29 08:02:01;;;;;;;10.30;4.37;;;11.20;84.10;;;;;;5076897;28;20028;-73
2022/04/29 08:04:27;;;;;;;12.13;6.00;;;11.30;83.50;;;;;;5059856;28;20070;-75
2022/04/29 08:06:53;;;;;;;7.47;4.30;;;11.40;82.80;;;;;;5076603;28;20539;-75
2022/04/29 08:09:18;;;;;;;10.70;4.97;;;11.60;81.80;;;;;;5076703;28;20082;-74
2022/04/29 08:11:44;;;;;;;11.98;4.43;;;11.50;81.30;;;;;;5059803;28;20114;-74
2022/04/29 08:14:10;;;;;;;13.68;5.25;;;11.60;81.30;;;;;;5094558;28;20103;-73
2022/04/29 08:16:35;;;;;;;8.57;3.78;;;11.70;81.40;;;;;;5076541;28;20146;-76
2022/04/29 08:19:01;;;;;;;14.23;3.95;;;11.90;81.50;;;;;;5059452;28;20024;-76
2022/04/29 08:21:27;;;;;;;11.95;3.55;;;12.00;81.30;;;;;;5074899;28;20108;-79
2022/04/29 08:23:53;;;;;;;6.72;3.42;;;12.10;81.30;;;;;;5075759;28;20423;-78
2022/04/29 08:26:18;;;;;;;12.38;3.72;;;12.20;81.10;;;;;;5076135;28;20032;-79
2022/04/29 08:28:44;;;;;;;10.88;3.95;;;12.40;81.40;;;;;;5075802;28;20035;-79
2022/04/29 08:31:10;;;;;;;8.38;3.15;;;12.50;80.30;;;;;;5094204;28;20035;-81
2022/04/29 08:33:35;;;;;;;7.57;3.72;;;12.60;80.00;;;;;;5094009;28;20396;-78
2022/04/29 08:36:03;;;;;;;10.63;4.45;;;12.70;79.80;;;;;;5076039;28;20109;-77
2022/04/29 08:38:28;;;;;;;8.02;2.85;;;12.80;79.20;;;;;;5076281;28;20028;-80
2022/04/29 08:41:00;;;;;;;7.90;3.70;;;12.90;78.50;;;;;;5075907;28;20028;-80
2022/04/29 08:43:26;;;;;;;11.00;3.83;;;13.00;77.50;;;;;;5075845;28;20031;-80
2022/04/29 08:45:52;;;;;;;7.55;3.60;;;13.10;77.50;;;;;;5093907;28;20028;-79
2022/04/29 08:48:18;;;;;;;10.45;4.00;;;13.20;76.00;;;;;;5070939;28;20123;-79
2022/04/29 08:50:44;;;;;;;8.65;3.60;;;13.40;75.80;;;;;;5093839;28;20028;-79
2022/04/29 08:53:10;;;;;;;11.48;3.05;;;13.50;75.60;;;;;;5075459;28;20069;-78
2022/04/29 09:01:23;;;;;;;11.57;3.78;;;13.80;72.90;;;;;;5093702;28;20108;-80
2022/04/29 09:03:49;;;;;;;9.93;3.58;;;13.90;71.20;;;;;;5093831;28;20020;-79
2022/04/29 09:06:22;;;;;;;12.50;3.05;;;13.90;70.70;;;;;;5093514;28;20043;-79
2022/04/29 09:08:48;;;;;;;6.40;2.90;;;14.00;70.20;;;;;;5075152;28;20107;-79
2022/04/29 09:11:27;;;;;;;9.55;3.47;;;14.10;69.40;;;;;;5093535;28;20032;-79
2022/04/29 09:13:53;;;;;;;11.00;3.65;;;14.20;69.20;;;;;;5093588;28;20848;-79
2022/04/29 09:16:19;;;;;;;10.88;3.60;;;14.40;68.90;;;;;;5093421;28;20103;-77
2022/04/29 09:18:45;;;;;;;9.40;3.10;;;14.40;69.00;;;;;;5075478;28;20112;-79
2022/04/29 09:21:24;;;;;;;10.60;3.70;;;14.60;69.00;;;;;;5075330;28;20024;-78
2022/04/29 09:23:55;;;;;;;10.40;4.00;;;14.70;68.60;;;;;;5093117;28;20050;-78
2022/04/29 09:26:24;;;;;;;11.45;4.25;;;14.80;67.80;;;;;;5075622;28;20071;-78
2022/04/29 09:28:55;;;;;;;8.50;3.75;;;14.90;67.40;;;;;;5075191;28;20032;-74
2022/04/29 09:31:21;;;;;;;6.10;3.05;;;15.00;67.50;;;;;;5093248;28;20050;-74
2022/04/29 09:33:57;;;;;;;13.27;3.92;;;15.10;67.60;;;;;;5061554;28;20027;-75
2022/04/29 09:36:24;;;;;;;8.15;3.20;;;15.20;67.70;;;;;;5078997;28;20025;-73
2022/04/29 09:41:59;;;;;;;7.35;2.95;;;15.40;66.60;;;;;;5082161;28;20097;-74
2022/04/29 09:44:35;;;;;;;8.52;3.10;;;15.50;65.70;;;;;;5060585;28;20024;-74
2022/04/29 09:47:14;;;;;;;10.35;3.47;;;15.60;65.50;;;;;;5062043;28;20031;-75
2022/04/29 09:49:41;;;;;;;10.80;3.67;;;15.60;64.60;;;;;;5096921;28;20434;-75
2022/04/29 09:52:07;;;;;;;9.60;4.18;;;15.70;64.30;;;;;;5078711;28;20036;-74
2022/04/29 09:54:37;;;;;;;8.82;3.50;;;15.70;64.30;;;;;;5079397;28;20391;-73
2022/04/29 09:57:03;;;;;;;10.07;3.65;;;15.80;64.50;;;;;;5078874;28;20028;-73
2022/04/29 09:59:44;;;;;;;9.70;3.20;;;15.90;63.80;;;;;;5097322;28;20317;-74
2022/04/29 10:02:12;;;;;;;11.27;3.15;;;15.90;63.20;;;;;;5096821;28;20016;-78
2022/04/29 10:04:40;;;;;;;12.13;4.00;;;15.90;62.90;;;;;;5097066;28;20027;-79
2022/04/29 10:07:08;;;;;;;10.40;3.97;;;15.90;62.70;;;;;;5097132;28;20099;-77
2022/04/29 10:09:36;;;;;;;9.60;3.90;;;16.00;62.70;;;;;;5097336;28;20024;-78
2022/04/29 10:12:04;;;;;;;11.93;4.28;;;16.00;63.00;;;;;;5076882;28;20111;-78
2022/04/29 10:14:36;;;;;;;11.45;4.10;;;16.00;62.80;;;;;;5075150;28;20025;-77
2022/04/29 10:22:42;;;;;;;9.90;3.33;;;16.10;63.00;;;;;;5076391;28;20526;-77
2022/04/29 10:25:10;;;;;;;10.48;3.70;;;16.10;62.80;;;;;;5058460;28;20037;-73
2022/04/29 10:27:42;;;;;;;10.23;3.20;;;16.10;62.80;;;;;;5077433;28;20496;-74
2022/04/29 10:30:09;;;;;;;10.05;2.95;;;16.20;62.70;;;;;;5078023;28;20028;-75
2022/04/29 10:33:06;;;;;;;7.65;3.45;;;16.20;62.70;;;;;;5095949;28;20028;-73
2022/04/29 10:35:49;;;;;;;6.68;2.47;;;16.20;62.40;;;;;;5077301;28;20032;-74
2022/04/29 10:38:32;;;;;;;9.23;3.47;;;16.30;62.40;;;;;;5077096;28;20062;-75
2022/04/29 10:41:07;;;;;;;9.77;2.95;;;16.40;62.20;;;;;;5092405;28;20491;-74
2022/04/29 10:43:51;;;;;;;7.05;2.60;;;16.50;62.00;;;;;;5095158;28;20020;-73
2022/04/29 10:46:29;;;;;;;8.70;3.33;;;16.50;61.50;;;;;;5095118;28;20047;-73
2022/04/29 10:48:55;;;;;;;9.20;3.03;;;16.50;61.20;;;;;;5077870;28;20020;-74
2022/04/29 10:51:49;;;;;;;9.35;3.10;;;16.50;60.80;;;;;;5078370;28;20381;-74
2022/04/29 10:54:15;;;;;;;15.73;3.53;;;16.50;60.00;;;;;;5085973;28;20032;-76
2022/04/29 10:56:41;;;;;;;11.38;3.20;;;16.40;60.00;;;;;;5096092;28;20028;-75
2022/04/29 10:59:11;;;;;;;9.30;3.90;;;16.40;59.90;;;;;;5096012;28;20024;-75
2022/04/29 11:01:41;;;;;;;10.57;4.40;;;16.40;60.00;;;;;;5077544;28;20024;-75
2022/04/29 11:04:15;;;;;;;7.05;3.15;;;16.50;60.30;;;;;;5095701;28;20035;-75
2022/04/29 11:06:46;;;;;;;9.32;3.38;;;16.50;60.60;;;;;;5095869;28;20047;-74
2022/04/29 11:09:29;;;;;;;10.02;3.90;;;16.50;60.00;;;;;;5095700;28;20504;-75
2022/04/29 11:11:55;;;;;;;12.25;4.43;;;16.50;59.30;;;;;;5095673;28;20111;-75
2022/04/29 11:14:21;;;;;;;11.82;3.63;;;16.50;59.20;;;;;;5058239;28;20032;-76
2022/04/29 11:16:49;;;;;;;11.23;4.10;;;16.50;59.40;;;;;;5095166;28;20024;-75
2022/04/29 11:19:20;;;;;;;9.02;3.67;;;16.40;59.10;;;;;;5095486;28;20028;-76
2022/04/29 11:24:42;;;;;;;9.10;4.23;;;16.40;58.80;;;;;;5092736;28;20119;-77
2022/04/29 11:27:09;;;;;;;7.75;2.60;;;16.40;58.70;;;;;;5077779;28;20426;-74
2022/04/29 11:29:45;;;;;;;11.48;4.15;;;16.40;58.70;;;;;;5076577;28;20044;-75
2022/04/29 11:32:11;;;;;;;13.15;4.47;;;16.30;58.50;;;;;;5076754;28;20511;-75
2022/04/29 11:35:00;;;;;;;7.35;3.70;;;16.30;58.50;;;;;;5059556;28;20062;-77
2022/04/29 11:37:33;;;;;;;10.73;3.80;;;16.20;58.60;;;;;;5076818;28;20047;-76
2022/04/29 11:40:07;;;;;;;8.73;3.88;;;16.20;58.70;;;;;;5094925;28;20067;-75
2022/04/29 11:42:33;;;;;;;;;;;16.20;59.10;;;;;;5095030;28;20035;-75
2022/04/29 11:45:07;;;;;;;8.68;3.40;;;16.20;59.90;;;;;;5095170;28;19904;-76
2022/04/29 11:47:33;;;;;;;6.70;2.97;;;16.20;59.40;;;;;;5077173;28;20036;-75
2022/04/29 11:50:00;;;;;;;8.23;2.70;;;16.30;59.50;;;;;;5060196;28;20020;-75
2022/04/29 11:52:32;;;;;;;10.32;3.45;;;16.30;59.40;;;;;;5060388;28;20073;-73
2022/04/29 11:55:12;;;;;;;9.93;3.03;;;16.30;59.10;;;;;;5094557;28;20036;-74
2022/04/29 11:57:54;;;;;;;8.35;3.83;;;16.40;59.00;;;;;;5094846;28;20032;-75
2022/04/29 12:00:25;;;;;;;7.88;3.38;;;16.40;59.10;;;;;;5094554;28;20027;-75
2022/04/29 12:02:51;;;;;;;11.60;4.03;;;16.40;59.30;;;;;;5076556;28;20067;-75
2022/04/29 12:05:20;;;;;;;9.52;3.28;;;16.40;58.90;;;;;;5077206;28;20020;-74
2022/04/29 12:07:46;;;;;;;11.07;4.45;;;16.30;58.80;;;;;;5077187;28;20056;-75
2022/04/29 12:10:19;;;;;;;9.25;4.22;;;16.40;58.70;;;;;;5059640;28;20034;-75
2022/04/29 12:12:49;;;;;;;9.00;3.50;;;16.40;58.60;;;;;;5076458;28;20036;-76
2022/04/29 12:15:19;;;;;;;8.98;3.92;;;16.50;58.60;;;;;;5075893;28;20027;-76
2022/04/29 12:17:48;;;;;;;8.00;3.22;;;16.50;58.70;;;;;;5094470;28;20031;-74
2022/04/29 12:20:18;;;;;;;6.93;2.70;;;16.60;58.50;;;;;;5094327;28;20365;-75
2022/04/29 12:22:47;;;;;;;6.38;3.20;;;16.70;58.10;;;;;;5076143;28;20024;-80
2022/04/29 12:25:33;;;;;;;7.93;3.30;;;16.80;58.20;;;;;;5075893;28;20020;-77
2022/04/29 12:28:05;;;;;;;8.55;3.25;;;17.00;57.50;;;;;;5094515;28;20452;-81
2022/04/29 12:36:10;;;;;;;5.70;2.17;;;17.70;57.10;;;;;;5075986;28;20035;-79
2022/04/29 12:38:37;;;;;;;6.47;2.38;;;18.00;56.70;;;;;;5090779;28;20064;-80
2022/04/29 12:41:27;;;;;;;7.13;3.08;;;18.20;56.40;;;;;;5065711;28;20093;-78
2022/04/29 12:43:54;;;;;;;7.30;2.88;;;18.40;55.40;;;;;;5089726;28;20115;-80
2022/04/29 12:46:21;;;;;;;5.38;2.20;;;18.40;55.00;;;;;;5086589;28;20034;-79
2022/04/29 12:48:52;;;;;;;6.78;2.38;;;18.50;54.50;;;;;;5093642;28;20032;-79
2022/04/29 12:51:32;;;;;;;5.65;2.20;;;18.50;54.30;;;;;;5083033;28;20060;-79
2022/04/29 12:54:25;;;;;;;8.07;2.38;;;18.60;54.00;;;;;;5080283;28;20035;-78
2022/04/29 12:56:51;;;;;;;6.82;2.25;;;18.90;54.00;;;;;;5059629;28;20032;-78
2022/04/29 12:59:22;;;;;;;7.32;2.45;;;19.50;54.30;;;;;;5088979;28;20038;-81
2022/04/29 13:01:47;;;;;;;3.42;1.50;;;20.00;52.70;;;;;;5091769;28;20027;-77
2022/04/29 13:04:14;;;;;;;6.97;1.90;;;20.60;52.10;;;;;;5093566;28;20036;-79
2022/04/29 13:06:39;;;;;;;6.40;2.15;;;21.10;50.70;;;;;;5089921;28;20031;-79
2022/04/29 13:09:05;;;;;;;6.45;2.50;;;21.60;49.90;;;;;;5050071;28;20119;-80
2022/04/29 13:11:32;;;;;;;6.88;2.20;;;22.10;48.40;;;;;;5089395;28;20107;-79
2022/04/29 13:13:59;;;;;;;6.80;1.80;;;22.70;47.50;;;;;;5075963;28;20028;-80
2022/04/29 13:16:25;;;;;;;5.60;2.20;;;23.10;47.20;;;;;;5093500;28;20039;-81
2022/04/29 13:18:51;;;;;;;3.78;1.75;;;23.50;46.50;;;;;;5087913;28;20036;-80
2022/04/29 13:21:17;;;;;;;8.75;1.92;;;24.00;46.00;;;;;;5093333;28;20028;-81
2022/04/29 13:23:44;;;;;;;8.38;1.77;;;24.50;44.50;;;;;;5093292;28;20419;-81